sensor_id;sensor_type;location;lat;lon;timestamp;pressure;altitude;pressure_sealevel;temperature;humidity
44872;BME280;30602;51.060;17.226;2023-03-14T00:02:44;99808.06;;;8.23;78.10
44872;BME280;30602;51.060;17.226;2023-03-14T00:06:16;99787.55;;;8.12;79.41
44872;BME280;30602;51.060;17.226;2023-03-14T00:10:43;99783.73;;;8.01;80.22
44872;BME280;30602;51.060;17.226;2023-03-14T00:14:51;99780.12;;;7.90;80.72
44872;BME280;30602;51.060;17.226;2023-03-14T00:18:34;99785.82;;;7.64;82.33
44872;BME280;30602;51.060;17.226;2023-03-14T00:30:08;99779.60;;;7.30;85.59
44872;BME280;30602;51.060;17.226;2023-03-14T00:33:30;99764.05;;;7.29;86.42
44872;BME280;30602;51.060;17.226;2023-03-14T00:37:24;99772.24;;;7.28;86.55
44872;BME280;30602;51.060;17.226;2023-03-14T00:41:37;99761.47;;;7.19;86.87
44872;BME280;30602;51.060;17.226;2023-03-14T00:45:50;99772.63;;;7.23;86.65
44872;BME280;30602;51.060;17.226;2023-03-14T00:49:31;99768.34;;;7.22;86.60
44872;BME280;30602;51.060;17.226;2023-03-14T00:52:53;99788.43;;;7.18;87.15
44872;BME280;30602;51.060;17.226;2023-03-14T00:56:34;99782.70;;;7.16;87.64
44872;BME280;30602;51.060;17.226;2023-03-14T01:01:07;99773.08;;;7.16;88.38
44872;BME280;30602;51.060;17.226;2023-03-14T01:04:26;99764.05;;;7.22;88.32
44872;BME280;30602;51.060;17.226;2023-03-14T01:08:50;99790.73;;;7.22;88.33
44872;BME280;30602;51.060;17.226;2023-03-14T01:12:11;99853.87;;;7.41;86.47
44872;BME280;30602;51.060;17.226;2023-03-14T01:15:54;99831.50;;;7.50;87.15
44872;BME280;30602;51.060;17.226;2023-03-14T01:19:14;99822.03;;;7.47;89.65
44872;BME280;30602;51.060;17.226;2023-03-14T01:23:30;99825.50;;;7.42;91.97
44872;BME280;30602;51.060;17.226;2023-03-14T01:27:40;99815.88;;;7.32;92.74
44872;BME280;30602;51.060;17.226;2023-03-14T01:31:13;99817.10;;;7.27;92.43
44872;BME280;30602;51.060;17.226;2023-03-14T01:35:05;99800.79;;;7.30;93.19
44872;BME280;30602;51.060;17.226;2023-03-14T01:38:38;99788.57;;;7.21;94.18
44872;BME280;30602;51.060;17.226;2023-03-14T01:42:09;99778.46;;;7.20;94.33
44872;BME280;30602;51.060;17.226;2023-03-14T01:46:44;99756.11;;;7.17;94.29
44872;BME280;30602;51.060;17.226;2023-03-14T01:50:58;99710.27;;;7.24;94.34
44872;BME280;30602;51.060;17.226;2023-03-14T01:58:45;99741.78;;;7.52;91.98
44872;BME280;30602;51.060;17.226;2023-03-14T02:02:26;99715.94;;;7.70;90.71
44872;BME280;30602;51.060;17.226;2023-03-14T02:06:29;99699.92;;;7.75;91.06
44872;BME280;30602;51.060;17.226;2023-03-14T02:10:50;99683.73;;;7.80;92.08
44872;BME280;30602;51.060;17.226;2023-03-14T02:14:22;99679.34;;;7.70;92.36
44872;BME280;30602;51.060;17.226;2023-03-14T02:17:48;99663.25;;;7.71;91.84
44872;BME280;30602;51.060;17.226;2023-03-14T02:21:22;99659.55;;;7.64;91.89
44872;BME280;30602;51.060;17.226;2023-03-14T02:25:18;99670.99;;;7.62;91.59
44872;BME280;30602;51.060;17.226;2023-03-14T02:29:09;99667.47;;;7.68;90.20
44872;BME280;30602;51.060;17.226;2023-03-14T02:33:15;99659.40;;;7.74;89.14
44872;BME280;30602;51.060;17.226;2023-03-14T02:41:36;99630.16;;;8.00;84.93
44872;BME280;30602;51.060;17.226;2023-03-14T02:53:37;99624.09;;;8.36;81.44
44872;BME280;30602;51.060;17.226;2023-03-14T02:57:41;99638.01;;;8.49;79.99
44872;BME280;30602;51.060;17.226;2023-03-14T03:02:16;99616.39;;;8.76;78.54
44872;BME280;30602;51.060;17.226;2023-03-14T03:05:57;99612.16;;;8.91;77.73
44872;BME280;30602;51.060;17.226;2023-03-14T03:09:41;99591.32;;;8.94;77.16
44872;BME280;30602;51.060;17.226;2023-03-14T03:13:34;99582.63;;;8.96;76.52
44872;BME280;30602;51.060;17.226;2023-03-14T03:17:36;99564.02;;;8.96;76.75
44872;BME280;30602;51.060;17.226;2023-03-14T03:21:03;99557.23;;;9.00;76.48
44872;BME280;30602;51.060;17.226;2023-03-14T03:25:29;99539.35;;;9.10;76.13
44872;BME280;30602;51.060;17.226;2023-03-14T03:33:06;99525.62;;;9.24;74.83
44872;BME280;30602;51.060;17.226;2023-03-14T03:37:22;99527.91;;;9.30;74.43
44872;BME280;30602;51.060;17.226;2023-03-14T03:41:15;99507.72;;;9.44;73.53
44872;BME280;30602;51.060;17.226;2023-03-14T03:45:08;99516.72;;;9.61;71.88
44872;BME280;30602;51.060;17.226;2023-03-14T03:49:00;99500.34;;;9.74;71.36
44872;BME280;30602;51.060;17.226;2023-03-14T03:56:32;99453.21;;;9.97;70.05
44872;BME280;30602;51.060;17.226;2023-03-14T04:00:38;99452.97;;;9.95;70.48
44872;BME280;30602;51.060;17.226;2023-03-14T04:04:01;99473.96;;;10.01;69.59
44872;BME280;30602;51.060;17.226;2023-03-14T04:07:20;99483.56;;;10.07;69.36
44872;BME280;30602;51.060;17.226;2023-03-14T04:10:43;99463.65;;;10.12;68.94
44872;BME280;30602;51.060;17.226;2023-03-14T04:14:02;99457.22;;;10.13;69.12
44872;BME280;30602;51.060;17.226;2023-03-14T04:18:06;99465.42;;;10.16;69.23
44872;BME280;30602;51.060;17.226;2023-03-14T04:21:48;99463.23;;;10.24;69.25
44872;BME280;30602;51.060;17.226;2023-03-14T04:25:10;99449.16;;;10.19;70.47
44872;BME280;30602;51.060;17.226;2023-03-14T04:29:39;99439.04;;;10.16;70.82
44872;BME280;30602;51.060;17.226;2023-03-14T04:33:31;99448.63;;;10.12;71.02
44872;BME280;30602;51.060;17.226;2023-03-14T04:37:16;99452.61;;;10.02;71.75
44872;BME280;30602;51.060;17.226;2023-03-14T04:41:08;99433.30;;;10.02;71.89
44872;BME280;30602;51.060;17.226;2023-03-14T04:45:41;99407.13;;;9.82;72.49
44872;BME280;30602;51.060;17.226;2023-03-14T04:49:35;99424.65;;;9.87;72.22
44872;BME280;30602;51.060;17.226;2023-03-14T04:53:17;99428.81;;;9.93;72.15
44872;BME280;30602;51.060;17.226;2023-03-14T04:56:40;99443.23;;;9.94;72.82
44872;BME280;30602;51.060;17.226;2023-03-14T05:00:33;99448.42;;;9.84;73.12
44872;BME280;30602;51.060;17.226;2023-03-14T05:04:01;99440.49;;;9.84;73.34
44872;BME280;30602;51.060;17.226;2023-03-14T05:07:46;99430.94;;;9.81;72.90
44872;BME280;30602;51.060;17.226;2023-03-14T05:11:42;99427.34;;;9.68;73.10
44872;BME280;30602;51.060;17.226;2023-03-14T05:15:49;99455.04;;;9.76;72.94
44872;BME280;30602;51.060;17.226;2023-03-14T05:20:02;99440.58;;;9.80;72.39
44872;BME280;30602;51.060;17.226;2023-03-14T05:23:49;99440.38;;;9.72;73.20
44872;BME280;30602;51.060;17.226;2023-03-14T05:27:55;99429.89;;;9.73;74.03
44872;BME280;30602;51.060;17.226;2023-03-14T05:31:44;99416.49;;;9.53;77.51
44872;BME280;30602;51.060;17.226;2023-03-14T05:35:28;99422.28;;;9.44;78.39
44872;BME280;30602;51.060;17.226;2023-03-14T05:39:20;99412.76;;;9.48;77.96
44872;BME280;30602;51.060;17.226;2023-03-14T05:42:41;99410.47;;;9.41;78.53
44872;BME280;30602;51.060;17.226;2023-03-14T05:46:31;99421.14;;;9.29;79.55
44872;BME280;30602;51.060;17.226;2023-03-14T05:49:54;99430.45;;;9.25;78.85
44872;BME280;30602;51.060;17.226;2023-03-14T05:53:33;99436.90;;;9.26;78.71
44872;BME280;30602;51.060;17.226;2023-03-14T05:56:51;99432.10;;;9.26;78.11
44872;BME280;30602;51.060;17.226;2023-03-14T06:00:23;99428.63;;;9.33;77.83
44872;BME280;30602;51.060;17.226;2023-03-14T06:04:04;99417.82;;;9.39;76.98
44872;BME280;30602;51.060;17.226;2023-03-14T06:08:29;99418.65;;;9.44;76.42
44872;BME280;30602;51.060;17.226;2023-03-14T06:11:59;99442.11;;;9.54;75.29
44872;BME280;30602;51.060;17.226;2023-03-14T06:15:17;99427.86;;;9.52;75.38
44872;BME280;30602;51.060;17.226;2023-03-14T06:19:10;99417.75;;;9.55;74.96
44872;BME280;30602;51.060;17.226;2023-03-14T06:23:43;99415.16;;;9.62;75.91
44872;BME280;30602;51.060;17.226;2023-03-14T06:27:51;99429.11;;;9.65;75.86
44872;BME280;30602;51.060;17.226;2023-03-14T06:31:09;99444.97;;;9.65;76.38
44872;BME280;30602;51.060;17.226;2023-03-14T06:34:57;99452.37;;;9.70;76.32
44872;BME280;30602;51.060;17.226;2023-03-14T06:38:22;99461.88;;;9.70;76.40
44872;BME280;30602;51.060;17.226;2023-03-14T06:41:56;99452.66;;;9.81;75.98
44872;BME280;30602;51.060;17.226;2023-03-14T06:46:01;99443.19;;;9.80;75.63
44872;BME280;30602;51.060;17.226;2023-03-14T06:49:43;99459.20;;;9.81;75.29
44872;BME280;30602;51.060;17.226;2023-03-14T06:53:48;99465.84;;;9.87;74.22
44872;BME280;30602;51.060;17.226;2023-03-14T07:01:27;99454.48;;;10.01;73.92
44872;BME280;30602;51.060;17.226;2023-03-14T07:05:03;99463.48;;;10.01;74.74
44872;BME280;30602;51.060;17.226;2023-03-14T07:08:23;99458.22;;;10.09;74.18
44872;BME280;30602;51.060;17.226;2023-03-14T07:12:09;99450.69;;;10.14;73.40
44872;BME280;30602;51.060;17.226;2023-03-14T07:15:56;99458.95;;;10.18;73.12
44872;BME280;30602;51.060;17.226;2023-03-14T07:19:27;99472.10;;;10.16;73.62
44872;BME280;30602;51.060;17.226;2023-03-14T07:23:20;99484.61;;;10.15;72.90
44872;BME280;30602;51.060;17.226;2023-03-14T07:26:39;99505.49;;;10.18;71.97
44872;BME280;30602;51.060;17.226;2023-03-14T07:30:52;99503.50;;;10.19;71.87
44872;BME280;30602;51.060;17.226;2023-03-14T07:34:43;99504.19;;;10.17;71.24
44872;BME280;30602;51.060;17.226;2023-03-14T07:42:08;99480.90;;;10.15;71.17
44872;BME280;30602;51.060;17.226;2023-03-14T07:45:31;99454.37;;;10.02;71.23
44872;BME280;30602;51.060;17.226;2023-03-14T07:48:53;99467.46;;;10.14;71.24
44872;BME280;30602;51.060;17.226;2023-03-14T07:52:17;99465.97;;;10.17;71.17
44872;BME280;30602;51.060;17.226;2023-03-14T07:55:57;99486.85;;;10.07;71.94
44872;BME280;30602;51.060;17.226;2023-03-14T07:59:37;99494.51;;;10.06;72.85
44872;BME280;30602;51.060;17.226;2023-03-14T08:03:31;99479.14;;;9.96;73.70
44872;BME280;30602;51.060;17.226;2023-03-14T08:07:10;99460.66;;;9.86;74.72
44872;BME280;30602;51.060;17.226;2023-03-14T08:11:09;99458.38;;;9.77;74.86
44872;BME280;30602;51.060;17.226;2023-03-14T08:14:54;99458.95;;;9.81;74.33
44872;BME280;30602;51.060;17.226;2023-03-14T08:19:11;99444.26;;;9.65;75.17
44872;BME280;30602;51.060;17.226;2023-03-14T08:22:58;99456.77;;;9.74;76.40
44872;BME280;30602;51.060;17.226;2023-03-14T08:27:03;99460.92;;;9.72;77.33
44872;BME280;30602;51.060;17.226;2023-03-14T08:30:42;99477.84;;;9.63;78.70
44872;BME280;30602;51.060;17.226;2023-03-14T08:34:25;99503.13;;;9.47;80.49
44872;BME280;30602;51.060;17.226;2023-03-14T08:38:09;99503.16;;;9.45;82.26
44872;BME280;30602;51.060;17.226;2023-03-14T08:41:49;99501.73;;;9.27;85.17
44872;BME280;30602;51.060;17.226;2023-03-14T08:45:28;99515.43;;;9.11;87.49
44872;BME280;30602;51.060;17.226;2023-03-14T08:49:00;99531.34;;;9.03;88.89
44872;BME280;30602;51.060;17.226;2023-03-14T08:52:46;99527.04;;;8.83;89.91
44872;BME280;30602;51.060;17.226;2023-03-14T08:56:06;99527.40;;;8.86;90.16
44872;BME280;30602;51.060;17.226;2023-03-14T08:59:29;99524.81;;;8.84;90.18
44872;BME280;30602;51.060;17.226;2023-03-14T09:03:18;99528.36;;;8.82;90.67
44872;BME280;30602;51.060;17.226;2023-03-14T09:06:40;99518.77;;;8.96;89.64
44872;BME280;30602;51.060;17.226;2023-03-14T09:10:53;99508.96;;;8.99;89.52
44872;BME280;30602;51.060;17.226;2023-03-14T09:14:33;99523.74;;;9.12;88.72
44872;BME280;30602;51.060;17.226;2023-03-14T09:18:16;99519.46;;;9.09;88.10
44872;BME280;30602;51.060;17.226;2023-03-14T09:22:06;99521.91;;;9.06;87.48
44872;BME280;30602;51.060;17.226;2023-03-14T09:30:10;99515.10;;;9.18;86.44
44872;BME280;30602;51.060;17.226;2023-03-14T09:34:22;99531.77;;;9.27;85.31
44872;BME280;30602;51.060;17.226;2023-03-14T09:38:18;99539.93;;;9.32;84.74
44872;BME280;30602;51.060;17.226;2023-03-14T09:42:37;99542.73;;;9.36;84.32
44872;BME280;30602;51.060;17.226;2023-03-14T09:46:38;99555.41;;;9.49;83.27
44872;BME280;30602;51.060;17.226;2023-03-14T09:57:45;99584.46;;;9.78;80.21
44872;BME280;30602;51.060;17.226;2023-03-14T10:01:40;99586.61;;;9.78;80.87
44872;BME280;30602;51.060;17.226;2023-03-14T10:05:19;99581.09;;;9.76;82.18
44872;BME280;30602;51.060;17.226;2023-03-14T10:09:30;99582.05;;;9.69;83.66
44872;BME280;30602;51.060;17.226;2023-03-14T10:18:03;99581.03;;;9.55;87.40
44872;BME280;30602;51.060;17.226;2023-03-14T10:21:29;99582.28;;;9.59;88.39
44872;BME280;30602;51.060;17.226;2023-03-14T10:26:06;99567.43;;;9.43;89.37
44872;BME280;30602;51.060;17.226;2023-03-14T10:30:03;99575.30;;;9.68;89.75
44872;BME280;30602;51.060;17.226;2023-03-14T10:34:01;99562.78;;;9.79;89.80
44872;BME280;30602;51.060;17.226;2023-03-14T10:37:24;99556.67;;;10.01;89.99
44872;BME280;30602;51.060;17.226;2023-03-14T10:41:23;99553.24;;;10.08;90.83
44872;BME280;30602;51.060;17.226;2023-03-14T10:49:32;99532.65;;;10.20;91.09
44872;BME280;30602;51.060;17.226;2023-03-14T10:57:22;99540.42;;;10.43;89.03
44872;BME280;30602;51.060;17.226;2023-03-14T11:00:40;99541.86;;;10.55;88.66
44872;BME280;30602;51.060;17.226;2023-03-14T11:04:12;99539.64;;;10.56;87.81
44872;BME280;30602;51.060;17.226;2023-03-14T11:07:40;99539.56;;;10.57;87.72
44872;BME280;30602;51.060;17.226;2023-03-14T11:11:46;99539.03;;;10.73;87.30
44872;BME280;30602;51.060;17.226;2023-03-14T11:30:49;99512.84;;;11.32;86.50
44872;BME280;30602;51.060;17.226;2023-03-14T11:34:11;99504.81;;;11.44;85.87
44872;BME280;30602;51.060;17.226;2023-03-14T11:41:57;99507.41;;;11.53;84.27
44872;BME280;30602;51.060;17.226;2023-03-14T11:45:35;99507.92;;;11.63;84.64
44872;BME280;30602;51.060;17.226;2023-03-14T12:00:17;99496.52;;;11.82;80.07
44872;BME280;30602;51.060;17.226;2023-03-14T12:15:47;99495.58;;;11.77;78.57
44872;BME280;30602;51.060;17.226;2023-03-14T12:19:32;99500.52;;;11.73;79.07
44872;BME280;30602;51.060;17.226;2023-03-14T12:23:12;99500.02;;;11.70;79.55
44872;BME280;30602;51.060;17.226;2023-03-14T12:35:32;99475.77;;;11.66;79.59
44872;BME280;30602;51.060;17.226;2023-03-14T12:39:10;99475.16;;;11.68;80.41
44872;BME280;30602;51.060;17.226;2023-03-14T12:43:02;99480.21;;;11.62;80.19
44872;BME280;30602;51.060;17.226;2023-03-14T12:50:55;99485.03;;;11.51;80.69
44872;BME280;30602;51.060;17.226;2023-03-14T12:54:27;99478.73;;;11.46;80.81
44872;BME280;30602;51.060;17.226;2023-03-14T12:57:59;99478.55;;;11.39;80.23
44872;BME280;30602;51.060;17.226;2023-03-14T13:01:21;99475.36;;;11.42;80.61
44872;BME280;30602;51.060;17.226;2023-03-14T13:05:12;99473.02;;;11.43;80.20
44872;BME280;30602;51.060;17.226;2023-03-14T13:08:52;99474.02;;;11.45;80.87
44872;BME280;30602;51.060;17.226;2023-03-14T13:16:38;99471.93;;;11.49;80.65
44872;BME280;30602;51.060;17.226;2023-03-14T13:20:16;99470.48;;;11.49;81.79
44872;BME280;30602;51.060;17.226;2023-03-14T13:27:48;99465.17;;;11.42;82.28
44872;BME280;30602;51.060;17.226;2023-03-14T13:31:31;99467.97;;;11.38;82.66
44872;BME280;30602;51.060;17.226;2023-03-14T13:34:51;99468.30;;;11.37;82.57
44872;BME280;30602;51.060;17.226;2023-03-14T13:38:20;99457.30;;;11.31;82.43
44872;BME280;30602;51.060;17.226;2023-03-14T13:42:02;99462.22;;;11.29;81.83
44872;BME280;30602;51.060;17.226;2023-03-14T13:46:16;99469.04;;;11.35;81.79
44872;BME280;30602;51.060;17.226;2023-03-14T13:49:59;99464.66;;;11.33;81.75
44872;BME280;30602;51.060;17.226;2023-03-14T13:53:55;99462.58;;;11.32;81.74
44872;BME280;30602;51.060;17.226;2023-03-14T13:57:53;99463.09;;;11.30;82.31
44872;BME280;30602;51.060;17.226;2023-03-14T14:01:53;99441.17;;;11.08;83.12
44872;BME280;30602;51.060;17.226;2023-03-14T14:05:15;99452.96;;;11.17;82.56
44872;BME280;30602;51.060;17.226;2023-03-14T14:09:41;99455.87;;;11.22;82.99
44872;BME280;30602;51.060;17.226;2023-03-14T14:13:03;99454.19;;;11.26;81.98
44872;BME280;30602;51.060;17.226;2023-03-14T14:20:59;99447.59;;;11.19;82.69
44872;BME280;30602;51.060;17.226;2023-03-14T14:24:44;99453.62;;;11.20;83.55
44872;BME280;30602;51.060;17.226;2023-03-14T14:29:24;99446.48;;;11.14;84.12
44872;BME280;30602;51.060;17.226;2023-03-14T14:36:49;99444.05;;;11.30;80.95
44872;BME280;30602;51.060;17.226;2023-03-14T14:40:32;99439.95;;;11.29;81.02
44872;BME280;30602;51.060;17.226;2023-03-14T14:44:17;99443.50;;;11.40;80.48
44872;BME280;30602;51.060;17.226;2023-03-14T14:51:47;99440.15;;;11.39;80.15
44872;BME280;30602;51.060;17.226;2023-03-14T14:55:42;99434.94;;;11.43;79.74
44872;BME280;30602;51.060;17.226;2023-03-14T14:59:28;99430.20;;;11.43;79.63
44872;BME280;30602;51.060;17.226;2023-03-14T15:02:53;99427.38;;;11.42;79.85
44872;BME280;30602;51.060;17.226;2023-03-14T15:06:38;99429.13;;;11.44;79.64
44872;BME280;30602;51.060;17.226;2023-03-14T15:10:01;99428.16;;;11.43;80.57
44872;BME280;30602;51.060;17.226;2023-03-14T15:14:03;99424.11;;;11.42;80.42
44872;BME280;30602;51.060;17.226;2023-03-14T15:18:17;99417.12;;;11.47;79.92
44872;BME280;30602;51.060;17.226;2023-03-14T15:22:13;99420.17;;;11.58;80.34
44872;BME280;30602;51.060;17.226;2023-03-14T15:25:39;99406.27;;;11.57;80.57
44872;BME280;30602;51.060;17.226;2023-03-14T15:29:08;99420.01;;;11.60;80.45
44872;BME280;30602;51.060;17.226;2023-03-14T15:32:50;99419.09;;;11.68;80.18
44872;BME280;30602;51.060;17.226;2023-03-14T15:36:37;99412.80;;;11.75;78.74
44872;BME280;30602;51.060;17.226;2023-03-14T15:40:34;99418.70;;;11.81;78.64
44872;BME280;30602;51.060;17.226;2023-03-14T15:44:23;99415.74;;;11.83;78.13
44872;BME280;30602;51.060;17.226;2023-03-14T15:47:49;99410.97;;;11.87;78.34
44872;BME280;30602;51.060;17.226;2023-03-14T15:51:29;99411.05;;;11.85;78.31
44872;BME280;30602;51.060;17.226;2023-03-14T15:54:48;99414.72;;;11.92;78.35
44872;BME280;30602;51.060;17.226;2023-03-14T15:58:34;99418.97;;;11.89;78.46
44872;BME280;30602;51.060;17.226;2023-03-14T16:02:21;99418.02;;;11.85;78.59
44872;BME280;30602;51.060;17.226;2023-03-14T16:05:40;99421.02;;;11.77;79.21
44872;BME280;30602;51.060;17.226;2023-03-14T16:09:35;99414.47;;;11.70;79.28
44872;BME280;30602;51.060;17.226;2023-03-14T16:13:28;99416.34;;;11.65;79.32
44872;BME280;30602;51.060;17.226;2023-03-14T16:17:30;99421.26;;;11.60;79.67
44872;BME280;30602;51.060;17.226;2023-03-14T16:21:14;99417.45;;;11.55;79.57
44872;BME280;30602;51.060;17.226;2023-03-14T16:25:44;99414.66;;;11.48;79.58
44872;BME280;30602;51.060;17.226;2023-03-14T16:29:04;99413.65;;;11.41;79.56
44872;BME280;30602;51.060;17.226;2023-03-14T16:32:50;99419.45;;;11.35;79.80
44872;BME280;30602;51.060;17.226;2023-03-14T16:36:34;99421.11;;;11.31;80.07
44872;BME280;30602;51.060;17.226;2023-03-14T16:40:30;99424.39;;;11.23;79.90
44872;BME280;30602;51.060;17.226;2023-03-14T16:48:05;99432.88;;;11.09;79.77
44872;BME280;30602;51.060;17.226;2023-03-14T16:52:06;99434.49;;;11.03;79.58
44872;BME280;30602;51.060;17.226;2023-03-14T16:55:26;99435.91;;;11.03;79.50
44872;BME280;30602;51.060;17.226;2023-03-14T16:58:48;99440.44;;;10.98;79.69
44872;BME280;30602;51.060;17.226;2023-03-14T17:02:23;99437.43;;;10.81;80.10
44872;BME280;30602;51.060;17.226;2023-03-14T17:06:04;99435.80;;;10.73;80.55
44872;BME280;30602;51.060;17.226;2023-03-14T17:09:54;99445.40;;;10.62;80.76
44872;BME280;30602;51.060;17.226;2023-03-14T17:13:31;99452.22;;;10.51;81.39
44872;BME280;30602;51.060;17.226;2023-03-14T17:16:52;99445.70;;;10.39;81.36
44872;BME280;30602;51.060;17.226;2023-03-14T17:20:18;99468.13;;;10.39;81.64
44872;BME280;30602;51.060;17.226;2023-03-14T17:23:43;99472.01;;;10.33;81.63
44872;BME280;30602;51.060;17.226;2023-03-14T17:27:27;99481.17;;;10.26;81.99
44872;BME280;30602;51.060;17.226;2023-03-14T17:31:20;99485.51;;;10.19;82.07
44872;BME280;30602;51.060;17.226;2023-03-14T17:35:04;99488.24;;;10.15;82.10
44872;BME280;30602;51.060;17.226;2023-03-14T17:38:45;99502.35;;;10.12;81.96
44872;BME280;30602;51.060;17.226;2023-03-14T17:42:08;99509.42;;;10.09;82.04
44872;BME280;30602;51.060;17.226;2023-03-14T17:45:59;99513.77;;;10.06;82.01
44872;BME280;30602;51.060;17.226;2023-03-14T17:49:25;99513.28;;;10.05;82.01
44872;BME280;30602;51.060;17.226;2023-03-14T17:53:04;99516.48;;;10.05;81.74
44872;BME280;30602;51.060;17.226;2023-03-14T17:56:34;99514.73;;;10.11;81.32
44872;BME280;30602;51.060;17.226;2023-03-14T18:00:18;99510.94;;;10.12;81.11
44872;BME280;30602;51.060;17.226;2023-03-14T18:04:00;99509.07;;;10.14;81.36
44872;BME280;30602;51.060;17.226;2023-03-14T18:07:53;99519.72;;;10.00;81.96
44872;BME280;30602;51.060;17.226;2023-03-14T18:11:20;99522.68;;;9.98;81.96
44872;BME280;30602;51.060;17.226;2023-03-14T18:15:09;99524.90;;;9.97;81.90
44872;BME280;30602;51.060;17.226;2023-03-14T18:19:05;99514.05;;;9.82;81.99
44872;BME280;30602;51.060;17.226;2023-03-14T18:22:23;99525.97;;;9.81;82.48
44872;BME280;30602;51.060;17.226;2023-03-14T18:25:51;99525.77;;;9.76;82.75
44872;BME280;30602;51.060;17.226;2023-03-14T18:29:12;99526.53;;;9.70;83.02
44872;BME280;30602;51.060;17.226;2023-03-14T18:32:47;99529.38;;;9.64;83.51
44872;BME280;30602;51.060;17.226;2023-03-14T18:36:14;99527.08;;;9.55;83.97
44872;BME280;30602;51.060;17.226;2023-03-14T18:39:36;99526.48;;;9.61;83.80
44872;BME280;30602;51.060;17.226;2023-03-14T18:43:07;99529.08;;;9.48;84.21
44872;BME280;30602;51.060;17.226;2023-03-14T18:46:58;99520.96;;;9.51;84.28
44872;BME280;30602;51.060;17.226;2023-03-14T18:50:38;99518.22;;;9.53;84.32
44872;BME280;30602;51.060;17.226;2023-03-14T18:53:59;99521.49;;;9.62;84.00
44872;BME280;30602;51.060;17.226;2023-03-14T18:57:38;99526.90;;;9.57;84.21
44872;BME280;30602;51.060;17.226;2023-03-14T19:01:05;99528.22;;;9.49;84.60
44872;BME280;30602;51.060;17.226;2023-03-14T19:04:44;99523.37;;;9.43;85.15
44872;BME280;30602;51.060;17.226;2023-03-14T19:12:28;99531.02;;;9.42;85.28
44872;BME280;30602;51.060;17.226;2023-03-14T19:16:19;99532.73;;;9.45;85.25
44872;BME280;30602;51.060;17.226;2023-03-14T19:19:47;99539.82;;;9.48;85.23
44872;BME280;30602;51.060;17.226;2023-03-14T19:27:30;99545.80;;;9.53;85.11
44872;BME280;30602;51.060;17.226;2023-03-14T19:31:25;99547.74;;;9.62;84.55
44872;BME280;30602;51.060;17.226;2023-03-14T19:34:48;99547.79;;;9.67;84.38
44872;BME280;30602;51.060;17.226;2023-03-14T19:38:11;99552.63;;;9.69;84.27
44872;BME280;30602;51.060;17.226;2023-03-14T19:42:05;99554.09;;;9.69;84.10
44872;BME280;30602;51.060;17.226;2023-03-14T19:45:46;99565.38;;;9.76;83.82
44872;BME280;30602;51.060;17.226;2023-03-14T19:49:26;99576.95;;;9.83;83.61
44872;BME280;30602;51.060;17.226;2023-03-14T19:53:06;99588.45;;;9.89;83.37
44872;BME280;30602;51.060;17.226;2023-03-14T19:56:40;99603.25;;;9.97;83.09
44872;BME280;30602;51.060;17.226;2023-03-14T20:00:21;99619.20;;;10.07;82.72
44872;BME280;30602;51.060;17.226;2023-03-14T20:07:51;99768.43;;;9.61;88.69
44872;BME280;30602;51.060;17.226;2023-03-14T20:11:47;99782.89;;;8.77;90.95
44872;BME280;30602;51.060;17.226;2023-03-14T20:15:11;99804.22;;;8.07;90.81
44872;BME280;30602;51.060;17.226;2023-03-14T20:18:40;99823.82;;;7.54;92.41
44872;BME280;30602;51.060;17.226;2023-03-14T20:22:47;99827.62;;;7.22;93.92
44872;BME280;30602;51.060;17.226;2023-03-14T20:26:31;99865.23;;;7.14;95.07
44872;BME280;30602;51.060;17.226;2023-03-14T20:29:59;99873.47;;;6.96;94.36
44872;BME280;30602;51.060;17.226;2023-03-14T20:34:09;99894.28;;;6.81;94.33
44872;BME280;30602;51.060;17.226;2023-03-14T20:37:54;99914.78;;;6.64;93.67
44872;BME280;30602;51.060;17.226;2023-03-14T20:41:15;99939.77;;;6.36;92.03
44872;BME280;30602;51.060;17.226;2023-03-14T20:44:54;99956.30;;;5.93;89.68
44872;BME280;30602;51.060;17.226;2023-03-14T20:48:16;99984.84;;;5.58;90.56
44872;BME280;30602;51.060;17.226;2023-03-14T20:56:29;100026.88;;;5.01;90.09
44872;BME280;30602;51.060;17.226;2023-03-14T21:00:15;100057.67;;;4.91;89.93
44872;BME280;30602;51.060;17.226;2023-03-14T21:03:56;100084.60;;;4.57;89.56
44872;BME280;30602;51.060;17.226;2023-03-14T21:07:35;100109.73;;;4.39;89.52
44872;BME280;30602;51.060;17.226;2023-03-14T21:11:21;100131.23;;;4.04;88.15
44872;BME280;30602;51.060;17.226;2023-03-14T21:14:40;100151.82;;;3.90;89.27
44872;BME280;30602;51.060;17.226;2023-03-14T21:17:59;100178.38;;;3.69;89.19
44872;BME280;30602;51.060;17.226;2023-03-14T21:21:23;100197.76;;;3.63;89.77
44872;BME280;30602;51.060;17.226;2023-03-14T21:25:02;100218.66;;;3.53;89.64
44872;BME280;30602;51.060;17.226;2023-03-14T21:28:47;100226.75;;;3.49;89.89
44872;BME280;30602;51.060;17.226;2023-03-14T21:32:17;100236.81;;;3.51;89.49
44872;BME280;30602;51.060;17.226;2023-03-14T21:35:59;100264.15;;;3.48;89.49
44872;BME280;30602;51.060;17.226;2023-03-14T21:39:18;100268.23;;;3.44;89.61
44872;BME280;30602;51.060;17.226;2023-03-14T21:43:00;100279.13;;;3.41;89.31
44872;BME280;30602;51.060;17.226;2023-03-14T21:46:22;100284.59;;;3.37;88.62
44872;BME280;30602;51.060;17.226;2023-03-14T21:50:15;100300.51;;;3.40;89.50
44872;BME280;30602;51.060;17.226;2023-03-14T21:53:42;100313.02;;;3.35;88.79
44872;BME280;30602;51.060;17.226;2023-03-14T21:57:22;100329.04;;;3.31;88.81
44872;BME280;30602;51.060;17.226;2023-03-14T22:00:47;100341.30;;;3.33;87.86
44872;BME280;30602;51.060;17.226;2023-03-14T22:04:08;100340.81;;;3.29;88.32
44872;BME280;30602;51.060;17.226;2023-03-14T22:07:47;100367.48;;;3.27;88.08
44872;BME280;30602;51.060;17.226;2023-03-14T22:11:21;100365.80;;;3.20;88.32
44872;BME280;30602;51.060;17.226;2023-03-14T22:14:53;100378.81;;;3.17;87.35
44872;BME280;30602;51.060;17.226;2023-03-14T22:19:00;100375.51;;;3.17;87.00